createdAt,value
2023-04-18T00:02:00.386Z,100261.81
2023-04-18T00:07:02.720Z,100250.09
2023-04-18T00:12:05.616Z,100251.28
2023-04-18T00:17:10.645Z,100259.03
2023-04-18T00:22:16.910Z,100258.44
2023-04-18T00:27:19.566Z,100255.22
2023-04-18T00:32:21.756Z,100264.91
2023-04-18T00:37:23.974Z,100266.84
2023-04-18T00:42:27.967Z,100266.28
2023-04-18T00:47:30.191Z,100260.22
2023-04-18T00:52:35.837Z,100259.28
2023-04-18T00:57:38.372Z,100270.81
2023-04-18T01:02:40.855Z,100269.25
2023-04-18T01:07:43.381Z,100264.09
2023-04-18T01:12:45.518Z,100261.31
2023-04-18T01:17:47.739Z,100262.16
2023-04-18T01:22:51.011Z,100263.56
2023-04-18T01:27:54.436Z,100251.66
2023-04-18T01:32:56.607Z,100253.22
2023-04-18T01:37:59.755Z,100261.16
2023-04-18T01:43:02.074Z,100257.19
2023-04-18T01:48:04.471Z,100258.31
2023-04-18T01:53:06.632Z,100259.22
2023-04-18T01:58:08.858Z,100257.84
2023-04-18T02:03:11.179Z,100255.41
2023-04-18T02:08:14.164Z,100262.03
2023-04-18T02:13:16.430Z,100261.28
2023-04-18T02:18:18.641Z,100263.22
2023-04-18T02:23:20.811Z,100265.09
2023-04-18T02:28:22.976Z,100270.00
2023-04-18T02:33:25.517Z,100262.03
2023-04-18T02:38:27.683Z,100260.59
2023-04-18T02:43:30.038Z,100267.69
2023-04-18T02:48:32.231Z,100270.16
2023-04-18T02:53:35.479Z,100271.06
2023-04-18T02:58:37.597Z,100270.53
2023-04-18T03:03:39.753Z,100284.63
2023-04-18T03:08:42.018Z,100271.13
2023-04-18T03:13:44.206Z,100283.00
2023-04-18T03:18:46.502Z,100292.31
2023-04-18T03:23:48.706Z,100295.91
2023-04-18T03:28:50.860Z,100293.97
2023-04-18T03:33:53.025Z,100289.28
2023-04-18T03:38:55.468Z,100289.84
2023-04-18T03:43:57.590Z,100289.84
2023-04-18T03:48:59.842Z,100289.31
2023-04-18T03:54:01.956Z,100298.13
2023-04-18T03:59:04.263Z,100305.72
2023-04-18T04:04:06.734Z,100303.91
2023-04-18T04:09:09.090Z,100306.00
2023-04-18T04:14:11.339Z,100318.13
2023-04-18T04:19:14.934Z,100328.72
2023-04-18T04:24:17.246Z,100331.03
2023-04-18T04:29:21.656Z,100332.69
2023-04-18T04:34:23.833Z,100334.91
2023-04-18T04:39:26.063Z,100336.41
2023-04-18T04:44:28.385Z,100339.47
2023-04-18T04:49:31.139Z,100350.19
2023-04-18T04:54:33.276Z,100349.03
2023-04-18T04:59:35.713Z,100347.59
2023-04-18T05:04:38.090Z,100354.75
2023-04-18T05:09:40.401Z,100354.69
2023-04-18T05:14:42.618Z,100354.84
2023-04-18T05:19:44.816Z,100357.91
2023-04-18T05:24:47.096Z,100361.97
2023-04-18T05:29:50.352Z,100359.59
2023-04-18T05:34:52.455Z,100371.81
2023-04-18T05:39:54.628Z,100360.84
2023-04-18T05:44:56.809Z,100372.94
2023-04-18T05:49:59.156Z,100361.50
2023-04-18T05:55:01.356Z,100366.47
2023-04-18T06:00:06.502Z,100372.81
2023-04-18T06:05:09.426Z,100369.44
2023-04-18T06:10:13.601Z,100370.69
2023-04-18T06:15:16.111Z,100375.91
2023-04-18T06:20:18.374Z,100374.69
2023-04-18T06:25:20.825Z,100384.44
2023-04-18T06:30:23.101Z,100382.97
2023-04-18T06:35:26.628Z,100384.47
2023-04-18T06:40:34.619Z,100387.91
2023-04-18T06:45:36.997Z,100390.56
2023-04-18T06:50:39.385Z,100389.97
2023-04-18T06:55:41.610Z,100393.59
2023-04-18T07:00:44.050Z,100393.22
2023-04-18T07:05:46.640Z,100396.28
2023-04-18T07:10:48.773Z,100399.50
2023-04-18T07:15:51.019Z,100405.69
2023-04-18T07:20:53.172Z,100395.12
2023-04-18T07:25:55.546Z,100391.22
2023-04-18T07:30:58.506Z,100402.69
2023-04-18T07:36:06.186Z,100399.28
2023-04-18T07:41:08.403Z,100411.88
2023-04-18T07:46:10.941Z,100413.13
2023-04-18T07:51:13.210Z,100424.31
2023-04-18T07:56:15.440Z,100428.72
2023-04-18T08:01:18.756Z,100436.56
2023-04-18T08:06:21.482Z,100435.38
2023-04-18T08:11:23.634Z,100438.62
2023-04-18T08:16:26.284Z,100429.06
2023-04-18T08:21:28.472Z,100437.13
2023-04-18T08:26:30.848Z,100429.12
2023-04-18T08:31:33.194Z,100434.84
2023-04-18T08:36:35.639Z,100427.44
2023-04-18T08:41:38.057Z,100424.59
2023-04-18T08:46:40.317Z,100432.97
2023-04-18T08:51:44.507Z,100440.72
2023-04-18T08:56:46.790Z,100445.03
2023-04-18T09:01:56.984Z,100439.66
2023-04-18T09:06:59.399Z,100437.16
2023-04-18T09:12:09.459Z,100437.88
2023-04-18T09:17:14.397Z,100438.00
2023-04-18T09:22:18.037Z,100429.81
2023-04-18T09:27:23.020Z,100433.56
2023-04-18T09:32:29.174Z,100438.47
2023-04-18T09:37:31.705Z,100439.09
2023-04-18T09:42:36.284Z,100429.50
2023-04-18T09:47:38.832Z,100428.28
2023-04-18T09:52:42.856Z,100426.09
2023-04-18T09:57:47.911Z,100425.50
2023-04-18T10:02:51.505Z,100417.59
2023-04-18T10:07:54.921Z,100422.78
2023-04-18T10:12:58.581Z,100406.56
2023-04-18T10:18:06.024Z,100416.69
2023-04-18T10:23:40.279Z,100419.94
2023-04-18T10:28:59.154Z,100414.25
2023-04-18T10:34:05.657Z,100414.88
2023-04-18T10:39:25.616Z,100417.75
2023-04-18T10:44:28.060Z,100414.62
2023-04-18T10:49:33.928Z,100414.66
2023-04-18T10:54:51.017Z,100412.06
2023-04-18T10:59:56.517Z,100412.09
2023-04-18T11:05:07.414Z,100410.37
2023-04-18T11:10:12.818Z,100404.19
2023-04-18T11:15:25.742Z,100402.87
2023-04-18T11:20:29.278Z,100395.97
2023-04-18T11:25:36.463Z,100399.81
2023-04-18T11:30:42.190Z,100403.13
2023-04-18T11:35:45.958Z,100410.72
2023-04-18T11:40:48.763Z,100415.41
2023-04-18T11:45:57.976Z,100412.97
2023-04-18T11:51:01.174Z,100409.84
2023-04-18T11:56:04.601Z,100411.19
2023-04-18T12:01:17.633Z,100405.97
2023-04-18T12:06:19.905Z,100403.13
2023-04-18T12:11:22.182Z,100391.50
2023-04-18T12:16:28.442Z,100397.81
2023-04-18T12:21:33.097Z,100388.38
2023-04-18T12:26:45.618Z,100384.53
2023-04-18T12:31:48.191Z,100389.06
2023-04-18T12:36:50.534Z,100400.91
2023-04-18T12:41:52.692Z,100408.41
2023-04-18T12:46:54.984Z,100402.28
2023-04-18T12:51:57.181Z,100402.50
2023-04-18T12:56:59.382Z,100401.69
2023-04-18T13:02:01.682Z,100385.59
2023-04-18T13:07:04.155Z,100363.66
2023-04-18T13:12:06.764Z,100363.47
2023-04-18T13:17:09.586Z,100369.91
2023-04-18T13:22:11.871Z,100369.16
2023-04-18T13:27:15.091Z,100361.12
2023-04-18T13:32:17.860Z,100367.25
2023-04-18T13:37:20.202Z,100362.87
2023-04-18T13:42:22.445Z,100373.91
2023-04-18T13:47:24.609Z,100365.50
2023-04-18T13:52:26.794Z,100368.00
2023-04-18T13:57:32.043Z,100356.66
2023-04-18T14:02:34.491Z,100357.09
2023-04-18T14:07:38.408Z,100356.09
2023-04-18T14:12:40.653Z,100357.81
2023-04-18T14:17:44.828Z,100358.69
2023-04-18T14:22:52.354Z,100346.44
2023-04-18T14:28:09.426Z,100346.59
2023-04-18T14:33:11.767Z,100350.28
2023-04-18T14:38:14.012Z,100339.38
2023-04-18T14:43:16.475Z,100347.25
2023-04-18T14:48:18.663Z,100345.53
2023-04-18T14:53:21.258Z,100354.84
2023-04-18T14:58:23.442Z,100350.56
2023-04-18T15:03:25.911Z,100358.31
2023-04-18T15:08:28.256Z,100362.87
2023-04-18T15:13:30.766Z,100355.97
2023-04-18T15:18:33.033Z,100349.13
2023-04-18T15:23:35.370Z,100350.88
2023-04-18T15:28:37.526Z,100355.81
2023-04-18T15:33:39.735Z,100355.37
2023-04-18T15:38:43.092Z,100347.84
2023-04-18T15:43:47.095Z,100345.37
2023-04-18T15:48:49.377Z,100351.50
2023-04-18T15:53:51.648Z,100362.91
2023-04-18T15:58:57.256Z,100355.75
2023-04-18T16:03:59.457Z,100361.06
2023-04-18T16:09:02.027Z,100376.75
2023-04-18T16:14:04.210Z,100372.94
2023-04-18T16:19:06.447Z,100373.97
2023-04-18T16:24:08.697Z,100379.81
2023-04-18T16:29:10.949Z,100387.75
2023-04-18T16:34:14.613Z,100384.41
2023-04-18T16:39:18.081Z,100382.59
2023-04-18T16:44:20.513Z,100385.75
2023-04-18T16:49:24.040Z,100389.34
2023-04-18T16:54:26.276Z,100383.28
2023-04-18T16:59:28.738Z,100387.50
2023-04-18T17:04:31.830Z,100388.38
2023-04-18T17:09:34.012Z,100398.22
2023-04-18T17:14:37.272Z,100407.47
2023-04-18T17:19:40.213Z,100409.56
2023-04-18T17:24:42.369Z,100410.13
2023-04-18T17:29:44.547Z,100410.84
2023-04-18T17:34:46.893Z,100408.62
2023-04-18T17:39:49.514Z,100407.50
2023-04-18T17:44:51.712Z,100416.84
2023-04-18T17:49:53.876Z,100415.91
2023-04-18T17:54:56.888Z,100428.22
2023-04-18T17:59:59.372Z,100435.06
2023-04-18T18:05:01.734Z,100432.03
2023-04-18T18:10:04.647Z,100445.66
2023-04-18T18:15:10.013Z,100445.66
2023-04-18T18:20:12.434Z,100450.22
2023-04-18T18:25:15.207Z,100448.38
2023-04-18T18:30:18.075Z,100458.91
2023-04-18T18:35:20.790Z,100459.47
2023-04-18T18:40:23.193Z,100459.41
2023-04-18T18:45:25.388Z,100456.19
2023-04-18T18:50:27.741Z,100462.16
2023-04-18T18:55:30.419Z,100463.72
2023-04-18T19:00:32.610Z,100470.78
2023-04-18T19:05:34.802Z,100473.22
2023-04-18T19:10:37.236Z,100478.38
2023-04-18T19:15:39.497Z,100491.25
2023-04-18T19:20:41.941Z,100501.66
2023-04-18T19:25:45.026Z,100503.59
2023-04-18T19:30:47.430Z,100517.75
2023-04-18T19:35:49.680Z,100523.66
2023-04-18T19:40:51.910Z,100516.66
2023-04-18T19:45:55.400Z,100520.53
2023-04-18T19:50:58.240Z,100523.84
2023-04-18T19:56:00.456Z,100532.16
2023-04-18T20:01:05.780Z,100535.94
2023-04-18T20:06:08.404Z,100529.19
2023-04-18T20:11:11.656Z,100536.47
2023-04-18T20:16:13.952Z,100528.00
2023-04-18T20:21:16.168Z,100525.22
2023-04-18T20:26:18.374Z,100536.63
2023-04-18T20:31:20.933Z,100532.78
2023-04-18T20:36:25.637Z,100519.97
2023-04-18T20:41:31.033Z,100527.72
2023-04-18T20:46:33.408Z,100534.38
2023-04-18T20:51:37.172Z,100539.50
2023-04-18T20:56:39.278Z,100535.97
2023-04-18T21:01:42.113Z,100536.63
2023-04-18T21:06:44.413Z,100540.06
2023-04-18T21:11:46.607Z,100538.75
2023-04-18T21:16:48.762Z,100533.41
2023-04-18T21:21:50.870Z,100523.53
2023-04-18T21:26:54.124Z,100531.19
2023-04-18T21:31:56.429Z,100517.12
2023-04-18T21:36:59.464Z,100524.59
2023-04-18T21:42:01.967Z,100526.03
2023-04-18T21:47:04.142Z,100520.31
2023-04-18T21:52:07.664Z,100515.69
2023-04-18T21:57:09.929Z,100519.94
2023-04-18T22:02:12.612Z,100515.59
2023-04-18T22:07:15.747Z,100514.28
2023-04-18T22:12:18.396Z,100512.63
2023-04-18T22:17:22.064Z,100511.53
2023-04-18T22:22:24.345Z,100502.59
2023-04-18T22:27:26.487Z,100506.47
2023-04-18T22:32:28.674Z,100498.25
2023-04-18T22:37:30.860Z,100500.72
2023-04-18T22:42:33.772Z,100499.09
2023-04-18T22:47:36.112Z,100486.38
2023-04-18T22:52:38.895Z,100484.72
2023-04-18T22:57:41.016Z,100474.81
2023-04-18T23:02:43.293Z,100469.78
2023-04-18T23:07:45.708Z,100469.28
2023-04-18T23:12:48.043Z,100465.84
2023-04-18T23:17:53.930Z,100467.63
2023-04-18T23:22:56.190Z,100454.47
2023-04-18T23:27:58.318Z,100452.47
2023-04-18T23:33:00.872Z,100447.28
2023-04-18T23:38:03.093Z,100441.75
2023-04-18T23:43:05.257Z,100435.66
2023-04-18T23:48:07.515Z,100428.78
2023-04-18T23:53:09.970Z,100414.94
2023-04-18T23:58:12.533Z,100416.69
